Cannon Air Force Base
KCVS : now visible

Airfield :











YOU CAN JOIN US ON...

 
LOGIN :

Register | Disclaimer

   EN    FR    IT 

 









Legend :    VFR   Marginal VFR   IFR   Intensive IFR   Very Intensive IFR
Visi :
Ceiling :
>= 8 km
>= 3000ft
5 to 8 km
1000 to 3000 ft
1500m to 5 km
500 to 1000 ft
800 to 1500m
200 to 500 ft
< 800m
< 200 ft
Symbols :   Thunderstorms  Fog  Heavy snow  Heavy precipitations  Wind > 20 kt







- Airport Elevation : 4295 ft


KCVS - Cannon Air Force Base

CURRENT METAR :
  • 182358Z AUTO 11012KT 10SM CLR 00/M12 A3010 RMK AO2 SLP213 T10041118 10026 21056 55007 $

EXPIRED METARs :
  • 182258Z AUTO 10016KT 10SM CLR 02/M11 A3009 RMK AO2 SLP210 T00171111 $
  • 182158Z AUTO 08012G20KT 10SM CLR 02/M10 A3009 RMK AO2 SLP206 T00181104 $

TAF AMD TAF KCVS
Valid from the 18 at 21:00 until the 20 at 00:00 UTC


182130Z 1821/1924 09014G24KT 9999 SCT035 QNH3019INS
BECMG 1902/1903 11012KT 9999 BKN050 QNH3014INS
BECMG 1908/1909 11010KT 9999 BKN015 620409 QNH3010INS
BECMG 1912/1913 11008KT 6000 -SHSN BR BKN008 620409 QNH3005INS
BECMG 1916/1917 13010G18KT 9999 NSW BKN010 620409 QNH3000INS TX06/1821Z TNM08/1914Z LAST NO AMDS AFT 1822 NEXT 1910
KZAB FIR / North America



MET'MAP, your aeronautical weather chart ! - Copyright ORBIFLY December 2007 - Disclaimer

ORBIFLY MET'MAP TEAM :

Programming & Development : Alexandra Zaïnal
Concept & Development : Baudouin d'Aumeries
Co-Development & Prog : Marc-Olivier Méhu
Technical & hardware support : Manuel Goepfert

Contact : metmap@orbifly.com




SOURCES & CREDITS :

   NOAA       Earth
Advisory